Kanchanaburi, Thailand
Current Conditions -  °F | °C
As of 4:00 AM on Friday 28 Nov 2014 (Local Time) from VTBD Reporting Station
Scattered Clouds Scattered Clouds  
Wind Chill: 79°   Ceiling: Unl
Heat Index: 82°   Visibility: 6mi
Dew Point: 75°   Wind: 3mph
Humidity: 89%   Direction: 80°E
Pressure: 29.8"   Gusts: NA
Location:  14.02°N, 99.53°E
Report Text: VTBD 272100Z 08003KT 9999 FEW020 SCT300 26/24 Q1009 NOSIG
Loading
Personal Weather Stations






























Interactive Weather Map New forecast layout! Learn more

10-Day Weather Forecast

Advertisements
Track Severe Weather on mobile